createdAt,value
2018-12-18T00:01:59.401Z,9.03
2018-12-18T00:07:05.898Z,10.10
2018-12-18T00:09:34.152Z,10.97
2018-12-18T00:12:02.571Z,11.00
2018-12-18T00:14:31.073Z,10.78
2018-12-18T00:17:00.596Z,10.73
2018-12-18T00:19:28.896Z,10.50
2018-12-18T00:21:57.173Z,10.47
2018-12-18T00:24:25.435Z,9.57
2018-12-18T00:26:53.747Z,10.17
2018-12-18T00:29:22.068Z,10.53
2018-12-18T00:31:50.349Z,11.07
2018-12-18T00:34:18.620Z,10.83
2018-12-18T00:36:46.972Z,10.57
2018-12-18T00:39:15.448Z,10.23
2018-12-18T00:41:43.826Z,10.23
2018-12-18T00:44:12.087Z,10.50
2018-12-18T00:46:40.352Z,9.57
2018-12-18T00:49:08.629Z,9.63
2018-12-18T00:51:36.980Z,9.00
2018-12-18T00:54:05.303Z,9.13
2018-12-18T00:56:33.584Z,9.20
2018-12-18T00:59:01.895Z,9.73
2018-12-18T01:01:30.159Z,9.10
2018-12-18T01:03:58.463Z,9.53
2018-12-18T01:06:26.812Z,8.53
2018-12-18T01:08:55.076Z,8.97
2018-12-18T01:11:23.406Z,8.67
2018-12-18T01:13:51.708Z,9.03
2018-12-18T01:16:20.003Z,9.20
2018-12-18T01:18:48.615Z,8.53
2018-12-18T01:21:16.917Z,9.37
2018-12-18T01:23:45.213Z,10.30
2018-12-18T01:26:13.489Z,7.87
2018-12-18T01:28:41.751Z,8.60
2018-12-18T01:31:10.024Z,8.93
2018-12-18T01:33:38.301Z,8.30
2018-12-18T01:36:06.577Z,8.97
2018-12-18T01:38:34.835Z,8.93
2018-12-18T01:41:03.124Z,9.23
2018-12-18T01:43:31.365Z,8.33
2018-12-18T01:45:59.678Z,8.47
2018-12-18T01:48:27.947Z,8.87
2018-12-18T01:50:56.199Z,8.70
2018-12-18T01:53:24.465Z,8.63
2018-12-18T01:55:52.746Z,7.93
2018-12-18T01:58:21.029Z,7.63
2018-12-18T02:00:49.280Z,7.70
2018-12-18T02:03:17.553Z,8.25
2018-12-18T02:05:45.818Z,8.60
2018-12-18T02:08:14.088Z,8.97
2018-12-18T02:13:20.763Z,9.17
2018-12-18T02:15:49.048Z,11.30
2018-12-18T02:18:17.333Z,10.23
2018-12-18T02:20:45.675Z,11.07
2018-12-18T02:23:13.969Z,8.77
2018-12-18T02:25:42.231Z,8.47
2018-12-18T02:28:10.476Z,8.23
2018-12-18T02:30:38.779Z,9.03
2018-12-18T02:33:07.032Z,8.40
2018-12-18T02:35:35.295Z,9.40
2018-12-18T02:38:03.599Z,9.63
2018-12-18T02:40:31.909Z,10.37
2018-12-18T02:43:00.186Z,9.93
2018-12-18T02:45:28.479Z,10.30
2018-12-18T02:50:34.882Z,12.13
2018-12-18T02:53:03.136Z,12.93
2018-12-18T02:55:31.506Z,11.87
2018-12-18T02:57:59.794Z,11.80
2018-12-18T03:00:28.142Z,11.80
2018-12-18T03:02:56.496Z,10.30
2018-12-18T03:05:24.771Z,10.50
2018-12-18T03:07:53.072Z,10.93
2018-12-18T03:10:21.365Z,10.90
2018-12-18T03:12:49.711Z,10.20
2018-12-18T03:15:17.965Z,10.93
2018-12-18T03:17:46.220Z,10.47
2018-12-18T03:20:14.491Z,10.08
2018-12-18T03:22:42.851Z,10.13
2018-12-18T03:25:11.145Z,9.10
2018-12-18T03:27:39.402Z,9.10
2018-12-18T03:30:07.775Z,9.57
2018-12-18T03:35:15.011Z,9.90
2018-12-18T03:37:43.315Z,9.58
2018-12-18T03:40:11.640Z,10.30
2018-12-18T03:42:39.904Z,10.43
2018-12-18T03:45:08.307Z,10.37
2018-12-18T03:47:36.623Z,10.60
2018-12-18T03:50:06.074Z,10.73
2018-12-18T03:52:34.420Z,10.03
2018-12-18T03:55:02.727Z,11.50
2018-12-18T03:57:31.091Z,11.57
2018-12-18T03:59:59.463Z,15.18
2018-12-18T04:02:27.724Z,12.10
2018-12-18T04:04:56.013Z,11.00
2018-12-18T04:07:24.423Z,11.50
2018-12-18T04:09:52.736Z,11.33
2018-12-18T04:15:00.039Z,10.67
2018-12-18T04:17:28.344Z,11.55
2018-12-18T04:19:56.608Z,10.73
2018-12-18T04:22:24.983Z,10.07
2018-12-18T04:24:53.251Z,10.10
2018-12-18T04:27:21.522Z,10.47
2018-12-18T04:29:49.935Z,10.57
2018-12-18T04:32:18.211Z,10.93
2018-12-18T04:34:46.508Z,12.47
2018-12-18T04:37:14.837Z,11.10
2018-12-18T04:39:43.096Z,11.20
2018-12-18T04:42:11.375Z,11.40
2018-12-18T04:44:39.696Z,11.10
2018-12-18T04:47:08.021Z,12.17
2018-12-18T04:49:36.444Z,11.53
2018-12-18T04:54:42.972Z,10.80
2018-12-18T04:59:45.773Z,11.33
2018-12-18T05:02:14.077Z,11.37
2018-12-18T05:04:42.363Z,10.60
2018-12-18T05:07:10.664Z,17.13
2018-12-18T05:09:38.943Z,18.97
2018-12-18T05:12:07.264Z,16.17
2018-12-18T05:14:35.632Z,18.10
2018-12-18T05:17:03.902Z,12.47
2018-12-18T05:19:32.184Z,16.90
2018-12-18T05:22:00.476Z,17.93
2018-12-18T05:24:28.752Z,17.33
2018-12-18T05:26:57.026Z,16.17
2018-12-18T05:29:25.345Z,17.37
2018-12-18T05:31:53.638Z,14.70
2018-12-18T05:34:21.943Z,15.93
2018-12-18T05:36:50.228Z,15.30
2018-12-18T05:39:18.560Z,13.47
2018-12-18T05:41:46.837Z,11.90
2018-12-18T05:44:15.143Z,11.13
2018-12-18T05:46:43.415Z,12.03
2018-12-18T05:49:11.774Z,12.37
2018-12-18T05:51:40.031Z,11.57
2018-12-18T05:54:08.321Z,11.87
2018-12-18T05:56:36.623Z,12.40
2018-12-18T05:59:04.972Z,12.77
2018-12-18T06:01:33.263Z,11.13
2018-12-18T06:04:01.660Z,10.63
2018-12-18T06:06:29.936Z,12.13
2018-12-18T06:08:58.211Z,10.83
2018-12-18T06:11:26.513Z,11.97
2018-12-18T06:13:54.829Z,11.03
2018-12-18T06:16:23.175Z,10.20
2018-12-18T06:18:52.110Z,11.97
2018-12-18T06:21:20.485Z,13.07
2018-12-18T06:23:48.799Z,21.83
2018-12-18T06:26:17.102Z,20.87
2018-12-18T06:28:45.395Z,23.80
2018-12-18T06:31:13.747Z,15.67
2018-12-18T06:33:42.022Z,12.78
2018-12-18T06:36:10.296Z,12.57
2018-12-18T06:38:38.584Z,16.73
2018-12-18T06:41:06.961Z,13.83
2018-12-18T06:43:35.267Z,13.17
2018-12-18T06:46:03.535Z,12.98
2018-12-18T06:48:31.857Z,13.10
2018-12-18T06:51:00.144Z,12.78
2018-12-18T06:53:28.415Z,12.90
2018-12-18T06:55:56.777Z,11.97
2018-12-18T06:58:25.065Z,11.83
2018-12-18T07:00:53.442Z,12.40
2018-12-18T07:03:21.724Z,12.23
2018-12-18T07:05:50.009Z,14.10
2018-12-18T07:08:19.003Z,17.07
2018-12-18T07:10:47.269Z,14.37
2018-12-18T07:13:15.539Z,20.67
2018-12-18T07:15:43.903Z,13.97
2018-12-18T07:18:12.165Z,20.60
2018-12-18T07:20:40.489Z,18.40
2018-12-18T07:23:08.760Z,22.30
2018-12-18T07:25:37.023Z,24.40
2018-12-18T07:28:05.316Z,22.20
2018-12-18T07:30:33.625Z,18.70
2018-12-18T07:33:01.945Z,15.90
2018-12-18T07:35:30.356Z,13.47
2018-12-18T07:37:58.623Z,13.10
2018-12-18T07:40:27.007Z,12.63
2018-12-18T07:42:55.271Z,12.87
2018-12-18T07:45:23.527Z,12.67
2018-12-18T07:47:51.799Z,10.40
2018-12-18T07:50:20.100Z,9.83
2018-12-18T07:52:48.406Z,8.63
2018-12-18T07:55:16.787Z,7.40
2018-12-18T07:57:45.102Z,7.60
2018-12-18T08:00:13.401Z,10.63
2018-12-18T08:02:41.696Z,12.13
2018-12-18T08:05:09.933Z,13.77
2018-12-18T08:07:38.226Z,17.17
2018-12-18T08:10:07.783Z,16.03
2018-12-18T08:12:36.064Z,18.50
2018-12-18T08:15:05.323Z,16.17
2018-12-18T08:17:33.578Z,16.30
2018-12-18T08:20:02.017Z,10.03
2018-12-18T08:22:30.385Z,9.93
2018-12-18T08:24:58.699Z,7.03
2018-12-18T08:27:26.935Z,5.58
2018-12-18T08:29:55.169Z,6.43
2018-12-18T08:35:01.643Z,6.93
2018-12-18T08:37:30.163Z,6.50
2018-12-18T08:39:58.409Z,6.90
2018-12-18T08:42:26.659Z,8.47
2018-12-18T08:44:55.068Z,11.97
2018-12-18T08:47:23.407Z,13.43
2018-12-18T08:49:51.669Z,9.33
2018-12-18T08:52:20.056Z,8.85
2018-12-18T08:54:48.563Z,9.30
2018-12-18T08:57:16.815Z,9.10
2018-12-18T08:59:45.067Z,9.00
2018-12-18T09:02:13.341Z,15.10
2018-12-18T09:04:41.583Z,9.20
2018-12-18T09:07:09.848Z,7.13
2018-12-18T09:09:38.208Z,7.47
2018-12-18T09:14:54.144Z,5.93
2018-12-18T09:20:08.665Z,8.20
2018-12-18T09:22:36.935Z,6.70
2018-12-18T09:25:05.944Z,5.20
2018-12-18T09:27:34.327Z,3.20
2018-12-18T09:30:03.772Z,3.53
2018-12-18T09:32:32.065Z,2.67
2018-12-18T09:35:00.299Z,2.03
2018-12-18T09:40:07.252Z,2.70
2018-12-18T09:42:41.065Z,2.00
2018-12-18T09:45:09.317Z,2.20
2018-12-18T09:47:37.586Z,1.80
2018-12-18T09:50:06.768Z,1.50
2018-12-18T09:52:35.043Z,1.90
2018-12-18T09:55:03.507Z,1.70
2018-12-18T09:57:37.363Z,2.00
2018-12-18T10:00:07.853Z,2.00
2018-12-18T10:02:36.152Z,2.30
2018-12-18T10:05:05.076Z,1.70
2018-12-18T10:07:33.348Z,1.70
2018-12-18T10:10:01.777Z,1.40
2018-12-18T10:12:35.673Z,1.50
2018-12-18T10:15:04.287Z,1.23
2018-12-18T10:17:32.586Z,1.40
2018-12-18T10:20:01.023Z,2.00
2018-12-18T10:22:29.283Z,2.13
2018-12-18T10:24:57.605Z,1.93
2018-12-18T10:27:26.072Z,2.10
2018-12-18T10:29:54.324Z,1.97
2018-12-18T10:32:22.626Z,2.03
2018-12-18T10:34:50.899Z,1.67
2018-12-18T10:37:19.233Z,2.00
2018-12-18T10:39:47.518Z,1.37
2018-12-18T10:42:15.803Z,1.30
2018-12-18T10:44:44.060Z,1.50
2018-12-18T10:49:50.431Z,1.40
2018-12-18T10:52:18.746Z,1.40
2018-12-18T10:54:47.020Z,1.17
2018-12-18T10:57:15.288Z,1.27
2018-12-18T10:59:43.808Z,1.40
2018-12-18T11:02:12.670Z,1.30
2018-12-18T11:04:40.924Z,1.07
2018-12-18T11:07:09.291Z,1.10
2018-12-18T11:09:37.645Z,1.10
2018-12-18T11:12:05.899Z,4.63
2018-12-18T11:14:34.159Z,1.92
2018-12-18T11:17:02.486Z,1.25
2018-12-18T11:19:30.764Z,1.15
2018-12-18T11:21:59.053Z,1.10
2018-12-18T11:24:27.384Z,1.20
2018-12-18T11:26:55.688Z,1.10
2018-12-18T11:29:23.964Z,0.90
2018-12-18T11:31:52.212Z,1.30
2018-12-18T11:34:20.501Z,1.00
2018-12-18T11:36:48.767Z,1.17
2018-12-18T11:39:17.696Z,1.00
2018-12-18T11:41:46.052Z,1.10
2018-12-18T11:44:14.317Z,1.13
2018-12-18T11:46:42.637Z,1.20
2018-12-18T11:49:10.921Z,1.30
2018-12-18T11:51:39.199Z,1.00
2018-12-18T11:54:07.462Z,0.93
2018-12-18T11:56:35.722Z,1.10
2018-12-18T11:59:04.056Z,1.10
2018-12-18T12:01:32.397Z,1.20
2018-12-18T12:04:00.702Z,1.20
2018-12-18T12:06:28.943Z,1.30
2018-12-18T12:08:57.247Z,1.30
2018-12-18T12:11:25.492Z,1.60
2018-12-18T12:13:53.861Z,1.53
2018-12-18T12:16:22.111Z,1.40
2018-12-18T12:18:50.431Z,1.30
2018-12-18T12:21:18.724Z,1.40
2018-12-18T12:23:47.012Z,1.40
2018-12-18T12:26:20.829Z,1.40
2018-12-18T12:28:49.085Z,1.77
2018-12-18T12:31:17.328Z,1.60
2018-12-18T12:33:45.606Z,4.60
2018-12-18T12:36:14.118Z,1.83
2018-12-18T12:38:42.428Z,1.70
2018-12-18T12:41:10.783Z,1.50
2018-12-18T12:43:39.100Z,1.20
2018-12-18T12:46:07.524Z,1.83
2018-12-18T12:48:41.359Z,1.80
2018-12-18T12:51:09.641Z,1.37
2018-12-18T12:53:37.915Z,1.80
2018-12-18T12:56:06.256Z,1.50
2018-12-18T12:58:34.534Z,1.40
2018-12-18T13:01:02.916Z,1.50
2018-12-18T13:03:31.160Z,1.40
2018-12-18T13:05:59.459Z,1.63
2018-12-18T13:08:27.822Z,1.40
2018-12-18T13:10:56.134Z,1.50
2018-12-18T13:13:24.395Z,1.53
2018-12-18T13:15:52.701Z,1.40
2018-12-18T13:18:20.981Z,1.50
2018-12-18T13:20:49.268Z,2.60
2018-12-18T13:23:17.511Z,2.33
2018-12-18T13:25:45.803Z,2.63
2018-12-18T13:28:14.188Z,1.77
2018-12-18T13:30:42.533Z,2.80
2018-12-18T13:33:10.819Z,1.60
2018-12-18T13:35:39.121Z,1.50
2018-12-18T13:38:07.371Z,1.50
2018-12-18T13:40:35.661Z,1.90
2018-12-18T13:43:03.911Z,1.57
2018-12-18T13:45:32.188Z,1.80
2018-12-18T13:48:00.427Z,1.90
2018-12-18T13:50:28.966Z,1.90
2018-12-18T13:52:57.246Z,1.77
2018-12-18T13:55:25.545Z,2.30
2018-12-18T13:57:54.094Z,2.20
2018-12-18T14:00:22.338Z,2.60
2018-12-18T14:02:50.583Z,2.80
2018-12-18T14:05:18.964Z,3.63
2018-12-18T14:07:47.249Z,3.10
2018-12-18T14:10:15.581Z,3.47
2018-12-18T14:15:25.491Z,3.40
2018-12-18T14:17:54.013Z,3.90
2018-12-18T14:20:22.486Z,4.27
2018-12-18T14:22:51.024Z,4.40
2018-12-18T14:25:19.299Z,4.60
2018-12-18T14:27:47.545Z,4.80
2018-12-18T14:30:15.900Z,4.87
2018-12-18T14:32:44.149Z,4.50
2018-12-18T14:35:12.550Z,4.50
2018-12-18T14:37:40.823Z,4.75
2018-12-18T14:40:09.208Z,4.63
2018-12-18T14:42:37.496Z,5.10
2018-12-18T14:45:06.199Z,5.33
2018-12-18T14:47:34.473Z,5.17
2018-12-18T14:50:03.012Z,5.47
2018-12-18T14:52:31.591Z,5.40
2018-12-18T14:54:59.874Z,4.80
2018-12-18T14:57:28.154Z,5.20
2018-12-18T14:59:56.422Z,4.80
2018-12-18T15:02:24.785Z,4.90
2018-12-18T15:04:53.016Z,4.70
2018-12-18T15:07:21.297Z,4.83
2018-12-18T15:09:49.583Z,4.60
2018-12-18T15:12:17.881Z,4.77
2018-12-18T15:14:47.444Z,5.30
2018-12-18T15:17:15.937Z,4.93
2018-12-18T15:19:44.192Z,5.10
2018-12-18T15:22:12.512Z,5.03
2018-12-18T15:24:40.822Z,4.60
2018-12-18T15:27:09.129Z,5.27
2018-12-18T15:29:37.427Z,4.67
2018-12-18T15:32:05.791Z,4.63
2018-12-18T15:34:34.030Z,5.03
2018-12-18T15:37:02.331Z,4.93
2018-12-18T15:39:30.641Z,4.60
2018-12-18T15:41:58.912Z,4.70
2018-12-18T15:44:27.154Z,5.57
2018-12-18T15:46:55.504Z,5.20
2018-12-18T15:49:23.773Z,6.63
2018-12-18T15:51:52.036Z,4.90
2018-12-18T15:54:20.323Z,4.87
2018-12-18T15:56:48.607Z,5.03
2018-12-18T15:59:16.956Z,4.70
2018-12-18T16:01:45.268Z,6.03
2018-12-18T16:04:13.561Z,5.60
2018-12-18T16:06:41.881Z,6.75
2018-12-18T16:09:10.134Z,5.77
2018-12-18T16:11:38.447Z,5.47
2018-12-18T16:14:06.696Z,5.50
2018-12-18T16:16:35.041Z,5.07
2018-12-18T16:19:03.337Z,7.13
2018-12-18T16:21:31.600Z,5.93
2018-12-18T16:24:00.035Z,6.67
2018-12-18T16:26:28.284Z,6.30
2018-12-18T16:28:56.583Z,6.87
2018-12-18T16:31:24.918Z,7.53
2018-12-18T16:33:53.195Z,9.40
2018-12-18T16:36:23.776Z,11.15
2018-12-18T16:38:52.050Z,10.27
2018-12-18T16:43:58.824Z,12.37
2018-12-18T16:46:27.478Z,10.60
2018-12-18T16:48:56.076Z,10.53
2018-12-18T16:51:24.840Z,10.50
2018-12-18T16:53:53.119Z,8.60
2018-12-18T16:56:21.452Z,8.43
2018-12-18T16:58:49.755Z,8.87
2018-12-18T17:01:18.043Z,9.13
2018-12-18T17:03:46.338Z,11.10
2018-12-18T17:06:14.628Z,9.40
2018-12-18T17:08:42.922Z,9.33
2018-12-18T17:11:11.340Z,7.87
2018-12-18T17:13:39.666Z,8.37
2018-12-18T17:16:07.925Z,7.60
2018-12-18T17:18:36.228Z,8.53
2018-12-18T17:21:04.668Z,8.30
2018-12-18T17:23:33.007Z,8.60
2018-12-18T17:26:01.305Z,11.37
2018-12-18T17:28:29.603Z,11.10
2018-12-18T17:30:57.927Z,10.07
2018-12-18T17:33:26.227Z,7.50
2018-12-18T17:35:54.626Z,11.47
2018-12-18T17:38:23.501Z,14.70
2018-12-18T17:40:52.068Z,14.45
2018-12-18T17:43:21.054Z,13.53
2018-12-18T17:45:49.368Z,14.47
2018-12-18T17:48:17.701Z,14.90
2018-12-18T17:50:45.977Z,14.03
2018-12-18T17:53:14.276Z,13.70
2018-12-18T17:58:20.965Z,11.47
2018-12-18T18:00:49.319Z,13.38
2018-12-18T18:03:17.624Z,16.67
2018-12-18T18:05:45.913Z,16.15
2018-12-18T18:08:14.276Z,15.20
2018-12-18T18:10:42.628Z,16.20
2018-12-18T18:13:10.971Z,14.50
2018-12-18T18:15:39.224Z,14.85
2018-12-18T18:18:08.011Z,13.93
2018-12-18T18:20:36.462Z,13.00
2018-12-18T18:23:04.824Z,12.93
2018-12-18T18:25:33.140Z,12.47
2018-12-18T18:28:01.432Z,11.53
2018-12-18T18:30:29.856Z,10.87
2018-12-18T18:32:58.392Z,10.48
2018-12-18T18:35:27.374Z,10.57
2018-12-18T18:37:55.688Z,9.80
2018-12-18T18:40:24.054Z,8.70
2018-12-18T18:42:52.365Z,9.07
2018-12-18T18:47:59.328Z,8.70
2018-12-18T18:50:27.692Z,8.43
2018-12-18T18:52:56.062Z,8.03
2018-12-18T18:55:24.624Z,8.45
2018-12-18T18:57:53.131Z,7.97
2018-12-18T19:00:21.955Z,6.47
2018-12-18T19:02:50.308Z,8.40
2018-12-18T19:05:18.575Z,8.03
2018-12-18T19:07:46.901Z,7.93
2018-12-18T19:10:15.416Z,8.30
2018-12-18T19:12:43.671Z,8.40
2018-12-18T19:15:13.206Z,8.60
2018-12-18T19:17:41.545Z,14.23
2018-12-18T19:20:10.870Z,11.73
2018-12-18T19:22:39.438Z,13.93
2018-12-18T19:25:08.696Z,14.60
2018-12-18T19:27:37.716Z,16.20
2018-12-18T19:30:07.476Z,16.50
2018-12-18T19:32:36.792Z,16.63
2018-12-18T19:35:06.503Z,14.30
2018-12-18T19:37:36.061Z,15.13
2018-12-18T19:40:05.854Z,14.53
2018-12-18T19:45:18.257Z,17.47
2018-12-18T19:47:46.621Z,20.30
2018-12-18T19:50:14.936Z,23.93
2018-12-18T19:52:43.185Z,24.47
2018-12-18T19:55:11.538Z,22.10
2018-12-18T19:57:39.794Z,21.97
2018-12-18T20:02:48.877Z,20.17
2018-12-18T20:05:17.188Z,20.43
2018-12-18T20:07:45.493Z,20.37
2018-12-18T20:10:13.898Z,20.73
2018-12-18T20:12:42.204Z,20.23
2018-12-18T20:15:10.524Z,18.80
2018-12-18T20:17:38.793Z,17.30
2018-12-18T20:20:08.916Z,15.50
2018-12-18T20:22:37.240Z,16.07
2018-12-18T20:25:06.086Z,15.17
2018-12-18T20:27:34.390Z,15.37
2018-12-18T20:32:40.865Z,16.70
2018-12-18T20:35:09.129Z,16.87
2018-12-18T20:37:37.427Z,15.57
2018-12-18T20:40:08.970Z,15.77
2018-12-18T20:42:37.266Z,13.83
2018-12-18T20:45:06.708Z,14.13
2018-12-18T20:47:35.020Z,12.88
2018-12-18T20:50:04.159Z,12.03
2018-12-18T20:52:32.448Z,10.07
2018-12-18T20:55:00.705Z,10.82
2018-12-18T20:57:29.016Z,14.03
2018-12-18T20:59:57.523Z,16.03
2018-12-18T21:02:25.828Z,15.63
2018-12-18T21:04:54.212Z,15.87
2018-12-18T21:07:22.578Z,14.50
2018-12-18T21:09:50.946Z,13.97
2018-12-18T21:12:19.278Z,14.37
2018-12-18T21:14:47.624Z,14.00
2018-12-18T21:17:15.951Z,15.93
2018-12-18T21:19:44.216Z,15.60
2018-12-18T21:22:12.562Z,14.07
2018-12-18T21:24:40.822Z,13.97
2018-12-18T21:27:09.274Z,13.90
2018-12-18T21:32:15.940Z,13.33
2018-12-18T21:34:44.208Z,13.70
2018-12-18T21:37:12.573Z,13.43
2018-12-18T21:39:42.644Z,13.80
2018-12-18T21:42:10.959Z,16.20
2018-12-18T21:44:39.315Z,15.33
2018-12-18T21:47:07.583Z,15.40
2018-12-18T21:49:36.210Z,14.60
2018-12-18T21:52:04.591Z,14.80
2018-12-18T21:54:34.098Z,14.17
2018-12-18T21:57:02.453Z,14.80
2018-12-18T21:59:30.713Z,15.97
2018-12-18T22:01:59.080Z,15.10
2018-12-18T22:04:27.377Z,15.70
2018-12-18T22:06:55.673Z,14.80
2018-12-18T22:09:23.995Z,11.67
2018-12-18T22:11:52.261Z,11.97
2018-12-18T22:14:20.535Z,12.67
2018-12-18T22:16:48.836Z,14.67
2018-12-18T22:19:17.113Z,13.90
2018-12-18T22:21:45.423Z,12.97
2018-12-18T22:24:13.687Z,12.37
2018-12-18T22:26:41.964Z,12.50
2018-12-18T22:29:10.243Z,11.68
2018-12-18T22:31:38.549Z,11.10
2018-12-18T22:34:07.249Z,12.17
2018-12-18T22:36:35.514Z,12.47
2018-12-18T22:39:06.513Z,13.77
2018-12-18T22:41:34.840Z,13.60
2018-12-18T22:44:03.124Z,14.13
2018-12-18T22:46:32.676Z,14.25
2018-12-18T22:49:00.940Z,14.43
2018-12-18T22:54:07.405Z,14.80
2018-12-18T22:56:35.685Z,14.50
2018-12-18T22:59:03.967Z,14.30
2018-12-18T23:01:38.136Z,13.00
2018-12-18T23:06:45.792Z,12.23
2018-12-18T23:09:14.587Z,14.07
2018-12-18T23:11:42.847Z,12.77
2018-12-18T23:14:11.195Z,12.33
2018-12-18T23:16:39.592Z,12.10
2018-12-18T23:19:07.863Z,12.30
2018-12-18T23:21:36.267Z,13.90
2018-12-18T23:24:04.548Z,12.60
2018-12-18T23:26:32.832Z,14.57
2018-12-18T23:29:01.140Z,14.03
2018-12-18T23:31:29.396Z,11.75
2018-12-18T23:36:35.883Z,12.97
2018-12-18T23:39:06.663Z,14.40
2018-12-18T23:41:36.561Z,14.60
2018-12-18T23:44:05.156Z,17.47
2018-12-18T23:46:33.478Z,16.23
2018-12-18T23:49:01.890Z,15.67
2018-12-18T23:51:30.180Z,14.93
2018-12-18T23:53:58.462Z,15.27
2018-12-18T23:56:26.725Z,13.47
2018-12-18T23:58:55.032Z,14.77
